sensor_id;sensor_type;location;lat;lon;timestamp;P1;durP1;ratioP1;P2;durP2;ratioP2
16272;SDS011;8244;50.044;9.006;2022-10-20T00:02:20;7.22;;;4.50;;
16272;SDS011;8244;50.044;9.006;2022-10-20T00:07:22;10.75;;;4.88;;
16272;SDS011;8244;50.044;9.006;2022-10-20T00:12:25;10.85;;;4.80;;
16272;SDS011;8244;50.044;9.006;2022-10-20T00:17:26;12.63;;;5.28;;
16272;SDS011;8244;50.044;9.006;2022-10-20T00:22:28;10.15;;;4.80;;
16272;SDS011;8244;50.044;9.006;2022-10-20T00:27:34;9.80;;;5.00;;
16272;SDS011;8244;50.044;9.006;2022-10-20T00:32:35;9.32;;;4.82;;
16272;SDS011;8244;50.044;9.006;2022-10-20T00:37:37;10.23;;;4.68;;
16272;SDS011;8244;50.044;9.006;2022-10-20T00:48:11;8.80;;;4.63;;
16272;SDS011;8244;50.044;9.006;2022-10-20T00:53:16;11.05;;;5.13;;
16272;SDS011;8244;50.044;9.006;2022-10-20T00:58:19;12.88;;;4.90;;
16272;SDS011;8244;50.044;9.006;2022-10-20T01:03:22;9.30;;;5.32;;
16272;SDS011;8244;50.044;9.006;2022-10-20T01:08:26;12.63;;;5.05;;
16272;SDS011;8244;50.044;9.006;2022-10-20T01:13:35;9.35;;;5.30;;
16272;SDS011;8244;50.044;9.006;2022-10-20T01:18:43;10.40;;;5.38;;
16272;SDS011;8244;50.044;9.006;2022-10-20T01:24:04;10.30;;;5.60;;
16272;SDS011;8244;50.044;9.006;2022-10-20T01:29:27;12.65;;;5.30;;
16272;SDS011;8244;50.044;9.006;2022-10-20T01:34:33;8.45;;;4.95;;
16272;SDS011;8244;50.044;9.006;2022-10-20T01:39:44;8.63;;;4.70;;
16272;SDS011;8244;50.044;9.006;2022-10-20T01:44:52;9.95;;;5.20;;
16272;SDS011;8244;50.044;9.006;2022-10-20T01:49:56;9.93;;;5.05;;
16272;SDS011;8244;50.044;9.006;2022-10-20T01:54:58;10.07;;;5.30;;
16272;SDS011;8244;50.044;9.006;2022-10-20T02:00:04;11.55;;;5.93;;
16272;SDS011;8244;50.044;9.006;2022-10-20T02:05:10;9.27;;;5.40;;
16272;SDS011;8244;50.044;9.006;2022-10-20T02:10:22;9.30;;;5.88;;
16272;SDS011;8244;50.044;9.006;2022-10-20T02:15:30;10.95;;;5.55;;
16272;SDS011;8244;50.044;9.006;2022-10-20T02:20:35;12.90;;;5.72;;
16272;SDS011;8244;50.044;9.006;2022-10-20T02:25:37;8.73;;;4.93;;
16272;SDS011;8244;50.044;9.006;2022-10-20T02:30:42;10.00;;;5.47;;
16272;SDS011;8244;50.044;9.006;2022-10-20T02:35:47;9.77;;;5.80;;
16272;SDS011;8244;50.044;9.006;2022-10-20T02:40:55;9.00;;;5.53;;
16272;SDS011;8244;50.044;9.006;2022-10-20T02:45:58;11.55;;;5.22;;
16272;SDS011;8244;50.044;9.006;2022-10-20T02:50:59;10.93;;;5.90;;
16272;SDS011;8244;50.044;9.006;2022-10-20T02:56:01;11.15;;;5.32;;
16272;SDS011;8244;50.044;9.006;2022-10-20T03:01:04;10.48;;;5.57;;
16272;SDS011;8244;50.044;9.006;2022-10-20T03:06:07;9.48;;;5.22;;
16272;SDS011;8244;50.044;9.006;2022-10-20T03:11:09;9.90;;;5.90;;
16272;SDS011;8244;50.044;9.006;2022-10-20T03:16:12;9.57;;;7.07;;
16272;SDS011;8244;50.044;9.006;2022-10-20T03:21:14;13.25;;;6.20;;
16272;SDS011;8244;50.044;9.006;2022-10-20T03:26:16;13.00;;;6.47;;
16272;SDS011;8244;50.044;9.006;2022-10-20T03:31:19;12.43;;;6.25;;
16272;SDS011;8244;50.044;9.006;2022-10-20T03:36:21;12.95;;;6.18;;
16272;SDS011;8244;50.044;9.006;2022-10-20T03:41:23;15.50;;;6.47;;
16272;SDS011;8244;50.044;9.006;2022-10-20T03:46:26;11.82;;;6.50;;
16272;SDS011;8244;50.044;9.006;2022-10-20T03:51:27;9.88;;;6.75;;
16272;SDS011;8244;50.044;9.006;2022-10-20T03:56:29;10.43;;;6.32;;
16272;SDS011;8244;50.044;9.006;2022-10-20T04:01:34;14.20;;;7.38;;
16272;SDS011;8244;50.044;9.006;2022-10-20T04:06:36;15.65;;;8.75;;
16272;SDS011;8244;50.044;9.006;2022-10-20T04:11:37;12.52;;;7.80;;
16272;SDS011;8244;50.044;9.006;2022-10-20T04:16:40;15.13;;;8.30;;
16272;SDS011;8244;50.044;9.006;2022-10-20T04:21:42;16.17;;;8.25;;
16272;SDS011;8244;50.044;9.006;2022-10-20T04:26:44;14.55;;;8.30;;
16272;SDS011;8244;50.044;9.006;2022-10-20T04:31:47;16.00;;;9.13;;
16272;SDS011;8244;50.044;9.006;2022-10-20T04:36:48;19.70;;;7.75;;
16272;SDS011;8244;50.044;9.006;2022-10-20T04:41:50;15.98;;;8.57;;
16272;SDS011;8244;50.044;9.006;2022-10-20T04:46:53;14.23;;;8.48;;
16272;SDS011;8244;50.044;9.006;2022-10-20T04:51:55;18.73;;;9.25;;
16272;SDS011;8244;50.044;9.006;2022-10-20T04:56:57;13.75;;;9.10;;
16272;SDS011;8244;50.044;9.006;2022-10-20T05:02:00;16.95;;;9.23;;
16272;SDS011;8244;50.044;9.006;2022-10-20T05:07:01;16.80;;;8.82;;
16272;SDS011;8244;50.044;9.006;2022-10-20T05:12:03;13.93;;;8.85;;
16272;SDS011;8244;50.044;9.006;2022-10-20T05:17:06;14.68;;;8.52;;
16272;SDS011;8244;50.044;9.006;2022-10-20T05:22:08;17.58;;;8.75;;
16272;SDS011;8244;50.044;9.006;2022-10-20T05:27:09;13.98;;;8.68;;
16272;SDS011;8244;50.044;9.006;2022-10-20T05:32:12;15.88;;;8.38;;
16272;SDS011;8244;50.044;9.006;2022-10-20T05:37:14;13.13;;;8.85;;
16272;SDS011;8244;50.044;9.006;2022-10-20T05:42:16;12.70;;;8.90;;
16272;SDS011;8244;50.044;9.006;2022-10-20T05:47:19;12.25;;;9.00;;
16272;SDS011;8244;50.044;9.006;2022-10-20T05:52:20;12.90;;;8.68;;
16272;SDS011;8244;50.044;9.006;2022-10-20T05:57:22;15.38;;;9.18;;
16272;SDS011;8244;50.044;9.006;2022-10-20T06:02:25;16.45;;;9.25;;
16272;SDS011;8244;50.044;9.006;2022-10-20T06:07:26;18.30;;;9.68;;
16272;SDS011;8244;50.044;9.006;2022-10-20T06:12:28;17.83;;;9.82;;
16272;SDS011;8244;50.044;9.006;2022-10-20T06:17:31;15.48;;;9.35;;
16272;SDS011;8244;50.044;9.006;2022-10-20T06:22:33;14.90;;;9.35;;
16272;SDS011;8244;50.044;9.006;2022-10-20T06:27:35;13.98;;;9.00;;
16272;SDS011;8244;50.044;9.006;2022-10-20T06:32:37;15.13;;;8.88;;
16272;SDS011;8244;50.044;9.006;2022-10-20T06:37:39;19.15;;;9.07;;
16272;SDS011;8244;50.044;9.006;2022-10-20T06:42:41;15.57;;;9.27;;
16272;SDS011;8244;50.044;9.006;2022-10-20T06:47:44;13.68;;;9.50;;
16272;SDS011;8244;50.044;9.006;2022-10-20T06:52:45;15.38;;;9.10;;
16272;SDS011;8244;50.044;9.006;2022-10-20T06:57:47;13.45;;;9.43;;
16272;SDS011;8244;50.044;9.006;2022-10-20T07:02:50;16.50;;;9.95;;
16272;SDS011;8244;50.044;9.006;2022-10-20T07:07:52;16.85;;;9.57;;
16272;SDS011;8244;50.044;9.006;2022-10-20T07:12:53;14.98;;;9.93;;
16272;SDS011;8244;50.044;9.006;2022-10-20T07:17:56;17.73;;;9.63;;
16272;SDS011;8244;50.044;9.006;2022-10-20T07:22:58;15.90;;;9.77;;
16272;SDS011;8244;50.044;9.006;2022-10-20T07:28:00;18.70;;;9.95;;
16272;SDS011;8244;50.044;9.006;2022-10-20T07:33:03;16.10;;;10.30;;
16272;SDS011;8244;50.044;9.006;2022-10-20T07:38:04;14.82;;;9.73;;
16272;SDS011;8244;50.044;9.006;2022-10-20T07:43:06;17.23;;;10.60;;
16272;SDS011;8244;50.044;9.006;2022-10-20T07:54:07;16.15;;;10.40;;
16272;SDS011;8244;50.044;9.006;2022-10-20T07:59:11;16.50;;;10.23;;
16272;SDS011;8244;50.044;9.006;2022-10-20T08:04:13;17.92;;;11.30;;
16272;SDS011;8244;50.044;9.006;2022-10-20T08:09:16;15.25;;;10.43;;
16272;SDS011;8244;50.044;9.006;2022-10-20T08:14:18;16.95;;;10.57;;
16272;SDS011;8244;50.044;9.006;2022-10-20T08:19:19;18.58;;;10.82;;
16272;SDS011;8244;50.044;9.006;2022-10-20T08:24:23;19.73;;;10.95;;
16272;SDS011;8244;50.044;9.006;2022-10-20T08:29:25;18.75;;;11.65;;
16272;SDS011;8244;50.044;9.006;2022-10-20T08:34:27;16.67;;;11.35;;
16272;SDS011;8244;50.044;9.006;2022-10-20T08:39:30;20.60;;;12.07;;
16272;SDS011;8244;50.044;9.006;2022-10-20T08:44:32;20.52;;;11.93;;
16272;SDS011;8244;50.044;9.006;2022-10-20T08:49:35;18.67;;;12.25;;
16272;SDS011;8244;50.044;9.006;2022-10-20T08:54:38;19.58;;;12.65;;
16272;SDS011;8244;50.044;9.006;2022-10-20T08:59:40;19.83;;;12.15;;
16272;SDS011;8244;50.044;9.006;2022-10-20T09:04:42;19.60;;;12.57;;
16272;SDS011;8244;50.044;9.006;2022-10-20T09:09:49;18.67;;;12.73;;
16272;SDS011;8244;50.044;9.006;2022-10-20T09:14:51;19.60;;;12.50;;
16272;SDS011;8244;50.044;9.006;2022-10-20T09:19:53;18.63;;;12.45;;
16272;SDS011;8244;50.044;9.006;2022-10-20T09:24:58;20.90;;;12.18;;
16272;SDS011;8244;50.044;9.006;2022-10-20T09:30:11;18.27;;;12.10;;
16272;SDS011;8244;50.044;9.006;2022-10-20T09:35:17;22.38;;;13.38;;
16272;SDS011;8244;50.044;9.006;2022-10-20T09:40:25;17.40;;;12.25;;
16272;SDS011;8244;50.044;9.006;2022-10-20T09:45:27;18.58;;;11.82;;
16272;SDS011;8244;50.044;9.006;2022-10-20T09:50:32;17.55;;;12.13;;
16272;SDS011;8244;50.044;9.006;2022-10-20T09:55:38;20.98;;;11.70;;
16272;SDS011;8244;50.044;9.006;2022-10-20T10:00:53;18.60;;;11.93;;
16272;SDS011;8244;50.044;9.006;2022-10-20T10:05:58;20.13;;;12.73;;
16272;SDS011;8244;50.044;9.006;2022-10-20T10:11:03;17.40;;;11.48;;
16272;SDS011;8244;50.044;9.006;2022-10-20T10:16:06;19.38;;;12.20;;
16272;SDS011;8244;50.044;9.006;2022-10-20T10:21:10;16.50;;;12.20;;
16272;SDS011;8244;50.044;9.006;2022-10-20T10:26:43;18.55;;;10.88;;
16272;SDS011;8244;50.044;9.006;2022-10-20T10:31:51;18.92;;;11.60;;
16272;SDS011;8244;50.044;9.006;2022-10-20T10:36:57;17.65;;;11.68;;
16272;SDS011;8244;50.044;9.006;2022-10-20T10:42:04;17.95;;;11.50;;
16272;SDS011;8244;50.044;9.006;2022-10-20T10:47:22;18.13;;;12.30;;
16272;SDS011;8244;50.044;9.006;2022-10-20T10:52:34;22.73;;;13.10;;
16272;SDS011;8244;50.044;9.006;2022-10-20T10:57:50;21.60;;;14.48;;
16272;SDS011;8244;50.044;9.006;2022-10-20T11:03:02;21.50;;;13.13;;
16272;SDS011;8244;50.044;9.006;2022-10-20T11:08:17;21.52;;;13.73;;
16272;SDS011;8244;50.044;9.006;2022-10-20T11:13:31;20.40;;;12.95;;
16272;SDS011;8244;50.044;9.006;2022-10-20T11:24:37;18.75;;;12.35;;
16272;SDS011;8244;50.044;9.006;2022-10-20T11:29:48;18.77;;;12.98;;
16272;SDS011;8244;50.044;9.006;2022-10-20T11:34:53;18.35;;;12.43;;
16272;SDS011;8244;50.044;9.006;2022-10-20T11:40:02;20.35;;;11.27;;
16272;SDS011;8244;50.044;9.006;2022-10-20T11:45:24;18.60;;;10.90;;
16272;SDS011;8244;50.044;9.006;2022-10-20T11:50:34;19.77;;;10.80;;
16272;SDS011;8244;50.044;9.006;2022-10-20T11:55:51;17.77;;;10.77;;
16272;SDS011;8244;50.044;9.006;2022-10-20T12:01:07;20.63;;;11.45;;
16272;SDS011;8244;50.044;9.006;2022-10-20T12:06:34;20.08;;;11.32;;
16272;SDS011;8244;50.044;9.006;2022-10-20T12:11:53;16.67;;;11.32;;
16272;SDS011;8244;50.044;9.006;2022-10-20T12:17:04;16.75;;;11.30;;
16272;SDS011;8244;50.044;9.006;2022-10-20T12:27:42;20.08;;;12.20;;
16272;SDS011;8244;50.044;9.006;2022-10-20T12:32:53;16.58;;;10.88;;
16272;SDS011;8244;50.044;9.006;2022-10-20T12:38:00;18.50;;;12.13;;
16272;SDS011;8244;50.044;9.006;2022-10-20T12:43:03;20.25;;;11.95;;
16272;SDS011;8244;50.044;9.006;2022-10-20T12:48:06;22.33;;;13.85;;
16272;SDS011;8244;50.044;9.006;2022-10-20T12:53:21;21.08;;;13.27;;
16272;SDS011;8244;50.044;9.006;2022-10-20T12:58:28;19.95;;;14.00;;
16272;SDS011;8244;50.044;9.006;2022-10-20T13:03:40;21.15;;;13.50;;
16272;SDS011;8244;50.044;9.006;2022-10-20T13:08:47;23.73;;;14.70;;
16272;SDS011;8244;50.044;9.006;2022-10-20T13:19:58;22.27;;;16.08;;
16272;SDS011;8244;50.044;9.006;2022-10-20T13:25:08;23.02;;;15.32;;
16272;SDS011;8244;50.044;9.006;2022-10-20T13:30:18;21.52;;;15.00;;
16272;SDS011;8244;50.044;9.006;2022-10-20T13:35:24;20.02;;;14.15;;
16272;SDS011;8244;50.044;9.006;2022-10-20T13:40:36;21.42;;;16.10;;
16272;SDS011;8244;50.044;9.006;2022-10-20T13:51:36;19.15;;;13.38;;
16272;SDS011;8244;50.044;9.006;2022-10-20T13:56:44;19.25;;;14.65;;
16272;SDS011;8244;50.044;9.006;2022-10-20T14:01:48;21.10;;;15.75;;
16272;SDS011;8244;50.044;9.006;2022-10-20T14:06:53;23.02;;;16.92;;
16272;SDS011;8244;50.044;9.006;2022-10-20T14:11:57;22.17;;;15.32;;
16272;SDS011;8244;50.044;9.006;2022-10-20T14:17:03;23.48;;;15.75;;
16272;SDS011;8244;50.044;9.006;2022-10-20T14:22:11;18.70;;;14.25;;
16272;SDS011;8244;50.044;9.006;2022-10-20T14:27:18;23.02;;;14.77;;
16272;SDS011;8244;50.044;9.006;2022-10-20T14:32:22;24.48;;;15.02;;
16272;SDS011;8244;50.044;9.006;2022-10-20T14:37:29;29.60;;;20.83;;
16272;SDS011;8244;50.044;9.006;2022-10-20T14:42:33;24.50;;;17.40;;
16272;SDS011;8244;50.044;9.006;2022-10-20T14:47:37;24.05;;;16.88;;
16272;SDS011;8244;50.044;9.006;2022-10-20T14:52:41;21.40;;;16.42;;
16272;SDS011;8244;50.044;9.006;2022-10-20T14:57:43;20.48;;;16.35;;
16272;SDS011;8244;50.044;9.006;2022-10-20T15:02:46;23.45;;;16.17;;
16272;SDS011;8244;50.044;9.006;2022-10-20T15:07:56;25.42;;;17.63;;
16272;SDS011;8244;50.044;9.006;2022-10-20T15:12:59;25.42;;;19.25;;
16272;SDS011;8244;50.044;9.006;2022-10-20T15:18:08;26.55;;;18.27;;
16272;SDS011;8244;50.044;9.006;2022-10-20T15:23:15;39.75;;;25.92;;
16272;SDS011;8244;50.044;9.006;2022-10-20T15:33:36;35.45;;;23.95;;
16272;SDS011;8244;50.044;9.006;2022-10-20T15:38:39;29.63;;;19.10;;
16272;SDS011;8244;50.044;9.006;2022-10-20T15:43:41;25.23;;;17.60;;
16272;SDS011;8244;50.044;9.006;2022-10-20T15:48:42;23.20;;;17.15;;
16272;SDS011;8244;50.044;9.006;2022-10-20T15:53:46;22.70;;;18.23;;
16272;SDS011;8244;50.044;9.006;2022-10-20T15:58:49;25.58;;;19.88;;
16272;SDS011;8244;50.044;9.006;2022-10-20T16:03:51;23.40;;;18.23;;
16272;SDS011;8244;50.044;9.006;2022-10-20T16:08:54;22.45;;;16.65;;
16272;SDS011;8244;50.044;9.006;2022-10-20T16:13:56;20.38;;;15.55;;
16272;SDS011;8244;50.044;9.006;2022-10-20T16:18:58;22.95;;;17.55;;
16272;SDS011;8244;50.044;9.006;2022-10-20T16:24:01;25.88;;;17.30;;
16272;SDS011;8244;50.044;9.006;2022-10-20T16:29:04;20.48;;;15.30;;
16272;SDS011;8244;50.044;9.006;2022-10-20T16:34:05;26.48;;;19.73;;
16272;SDS011;8244;50.044;9.006;2022-10-20T16:39:08;27.77;;;20.38;;
16272;SDS011;8244;50.044;9.006;2022-10-20T16:44:11;22.58;;;17.60;;
16272;SDS011;8244;50.044;9.006;2022-10-20T16:49:13;26.88;;;17.77;;
16272;SDS011;8244;50.044;9.006;2022-10-20T16:54:16;23.85;;;17.92;;
16272;SDS011;8244;50.044;9.006;2022-10-20T16:59:18;23.40;;;17.02;;
16272;SDS011;8244;50.044;9.006;2022-10-20T17:04:20;21.58;;;16.63;;
16272;SDS011;8244;50.044;9.006;2022-10-20T17:09:24;24.13;;;17.00;;
16272;SDS011;8244;50.044;9.006;2022-10-20T17:14:26;23.70;;;17.40;;
16272;SDS011;8244;50.044;9.006;2022-10-20T17:19:27;24.58;;;18.20;;
16272;SDS011;8244;50.044;9.006;2022-10-20T17:24:31;23.55;;;17.75;;
16272;SDS011;8244;50.044;9.006;2022-10-20T17:29:32;27.88;;;18.70;;
16272;SDS011;8244;50.044;9.006;2022-10-20T17:34:34;24.20;;;18.08;;
16272;SDS011;8244;50.044;9.006;2022-10-20T17:39:37;27.42;;;19.45;;
16272;SDS011;8244;50.044;9.006;2022-10-20T17:44:39;24.60;;;20.20;;
16272;SDS011;8244;50.044;9.006;2022-10-20T17:49:41;32.33;;;22.75;;
16272;SDS011;8244;50.044;9.006;2022-10-20T17:54:44;36.67;;;24.20;;
16272;SDS011;8244;50.044;9.006;2022-10-20T17:59:45;39.92;;;24.77;;
16272;SDS011;8244;50.044;9.006;2022-10-20T18:04:47;32.97;;;23.48;;
16272;SDS011;8244;50.044;9.006;2022-10-20T18:09:50;31.55;;;21.30;;
16272;SDS011;8244;50.044;9.006;2022-10-20T18:14:52;35.42;;;25.35;;
16272;SDS011;8244;50.044;9.006;2022-10-20T18:19:53;30.67;;;22.80;;
16272;SDS011;8244;50.044;9.006;2022-10-20T18:25:00;32.00;;;21.83;;
16272;SDS011;8244;50.044;9.006;2022-10-20T18:30:01;34.38;;;23.67;;
16272;SDS011;8244;50.044;9.006;2022-10-20T18:35:04;27.77;;;22.33;;
16272;SDS011;8244;50.044;9.006;2022-10-20T18:40:09;32.60;;;24.75;;
16272;SDS011;8244;50.044;9.006;2022-10-20T18:45:11;35.35;;;25.15;;
16272;SDS011;8244;50.044;9.006;2022-10-20T18:50:12;29.65;;;23.10;;
16272;SDS011;8244;50.044;9.006;2022-10-20T18:55:16;27.63;;;20.45;;
16272;SDS011;8244;50.044;9.006;2022-10-20T19:00:17;26.67;;;18.98;;
16272;SDS011;8244;50.044;9.006;2022-10-20T19:05:19;26.67;;;18.95;;
16272;SDS011;8244;50.044;9.006;2022-10-20T19:10:22;29.42;;;18.92;;
16272;SDS011;8244;50.044;9.006;2022-10-20T19:15:24;27.60;;;18.83;;
16272;SDS011;8244;50.044;9.006;2022-10-20T19:20:28;28.00;;;18.90;;
16272;SDS011;8244;50.044;9.006;2022-10-20T19:25:31;24.83;;;18.48;;
16272;SDS011;8244;50.044;9.006;2022-10-20T19:30:33;27.17;;;19.48;;
16272;SDS011;8244;50.044;9.006;2022-10-20T19:35:35;23.00;;;17.52;;
16272;SDS011;8244;50.044;9.006;2022-10-20T19:40:38;21.27;;;15.27;;
16272;SDS011;8244;50.044;9.006;2022-10-20T19:45:40;24.98;;;17.10;;
16272;SDS011;8244;50.044;9.006;2022-10-20T19:50:41;24.70;;;17.33;;
16272;SDS011;8244;50.044;9.006;2022-10-20T19:55:46;30.08;;;21.88;;
16272;SDS011;8244;50.044;9.006;2022-10-20T20:00:49;31.45;;;22.73;;
16272;SDS011;8244;50.044;9.006;2022-10-20T20:05:56;32.35;;;23.48;;
16272;SDS011;8244;50.044;9.006;2022-10-20T20:11:00;41.70;;;25.05;;
16272;SDS011;8244;50.044;9.006;2022-10-20T20:16:04;38.58;;;24.63;;
16272;SDS011;8244;50.044;9.006;2022-10-20T20:21:06;40.75;;;26.25;;
16272;SDS011;8244;50.044;9.006;2022-10-20T20:26:09;39.75;;;24.15;;
16272;SDS011;8244;50.044;9.006;2022-10-20T20:31:11;40.63;;;25.55;;
16272;SDS011;8244;50.044;9.006;2022-10-20T20:36:12;40.75;;;26.42;;
16272;SDS011;8244;50.044;9.006;2022-10-20T20:41:16;40.05;;;25.33;;
16272;SDS011;8244;50.044;9.006;2022-10-20T20:46:20;39.10;;;24.63;;
16272;SDS011;8244;50.044;9.006;2022-10-20T20:51:25;33.55;;;23.70;;
16272;SDS011;8244;50.044;9.006;2022-10-20T20:56:29;33.90;;;24.25;;
16272;SDS011;8244;50.044;9.006;2022-10-20T21:01:31;34.80;;;22.00;;
16272;SDS011;8244;50.044;9.006;2022-10-20T21:06:32;33.50;;;22.08;;
16272;SDS011;8244;50.044;9.006;2022-10-20T21:11:38;29.08;;;21.08;;
16272;SDS011;8244;50.044;9.006;2022-10-20T21:16:41;32.50;;;22.90;;
16272;SDS011;8244;50.044;9.006;2022-10-20T21:21:44;27.35;;;21.90;;
16272;SDS011;8244;50.044;9.006;2022-10-20T21:26:50;33.75;;;22.83;;
16272;SDS011;8244;50.044;9.006;2022-10-20T21:31:52;30.33;;;21.90;;
16272;SDS011;8244;50.044;9.006;2022-10-20T21:36:55;32.47;;;22.08;;
16272;SDS011;8244;50.044;9.006;2022-10-20T21:41:57;30.70;;;21.55;;
16272;SDS011;8244;50.044;9.006;2022-10-20T21:46:59;30.67;;;22.02;;
16272;SDS011;8244;50.044;9.006;2022-10-20T21:52:01;31.98;;;23.40;;
16272;SDS011;8244;50.044;9.006;2022-10-20T21:57:04;30.17;;;22.13;;
16272;SDS011;8244;50.044;9.006;2022-10-20T22:02:07;31.40;;;20.58;;
16272;SDS011;8244;50.044;9.006;2022-10-20T22:07:12;32.90;;;21.17;;
16272;SDS011;8244;50.044;9.006;2022-10-20T22:12:15;28.60;;;19.80;;
16272;SDS011;8244;50.044;9.006;2022-10-20T22:17:17;29.73;;;18.52;;
16272;SDS011;8244;50.044;9.006;2022-10-20T22:22:20;25.45;;;16.73;;
16272;SDS011;8244;50.044;9.006;2022-10-20T22:27:23;28.40;;;16.92;;
16272;SDS011;8244;50.044;9.006;2022-10-20T22:32:24;22.55;;;15.98;;
16272;SDS011;8244;50.044;9.006;2022-10-20T22:37:26;21.38;;;16.17;;
16272;SDS011;8244;50.044;9.006;2022-10-20T22:42:29;22.08;;;15.60;;
16272;SDS011;8244;50.044;9.006;2022-10-20T22:47:31;26.95;;;17.02;;
16272;SDS011;8244;50.044;9.006;2022-10-20T22:52:33;23.98;;;15.88;;
16272;SDS011;8244;50.044;9.006;2022-10-20T22:57:36;21.50;;;16.70;;
16272;SDS011;8244;50.044;9.006;2022-10-20T23:02:38;23.85;;;16.17;;
16272;SDS011;8244;50.044;9.006;2022-10-20T23:07:39;22.08;;;15.15;;
16272;SDS011;8244;50.044;9.006;2022-10-20T23:12:43;21.30;;;15.68;;
16272;SDS011;8244;50.044;9.006;2022-10-20T23:17:44;25.98;;;16.67;;
16272;SDS011;8244;50.044;9.006;2022-10-20T23:22:46;22.25;;;15.38;;
16272;SDS011;8244;50.044;9.006;2022-10-20T23:27:49;24.33;;;16.08;;
16272;SDS011;8244;50.044;9.006;2022-10-20T23:32:51;25.15;;;13.68;;
16272;SDS011;8244;50.044;9.006;2022-10-20T23:37:52;18.95;;;12.93;;
16272;SDS011;8244;50.044;9.006;2022-10-20T23:42:55;20.33;;;12.35;;
16272;SDS011;8244;50.044;9.006;2022-10-20T23:47:57;17.05;;;10.75;;
16272;SDS011;8244;50.044;9.006;2022-10-20T23:52:59;18.42;;;10.50;;
16272;SDS011;8244;50.044;9.006;2022-10-20T23:58:02;18.42;;;10.35;;
